Beeler, Kansas
Current Conditions -  °F | °C
As of 12:54 AM on Saturday 20 Dec 2014 (Local Time) from KGCK Reporting Station
Haze Haze  
Wind Chill: 19°   Ceiling: Unl
Heat Index: 28°   Visibility: 4mi
Dew Point: 27°   Wind: 9mph
Humidity: 96%   Direction: 200°SSW
Pressure: 30.07"   Gusts: NA
Location:  38.44°N, 100.2°W
Report Text: KGCK 200654Z AUTO 20008KT 4SM BR CLR M02/M03 A3007 RMK AO2 SLP198 I1000 T10221028
Loading
Personal Weather Stations






























Interactive Weather Map New forecast layout! Learn more

10-Day Weather Forecast

Advertisements
Track Severe Weather on mobile